createdAt,value
2023-01-25T00:02:11.466Z,21.55
2023-01-25T00:04:56.818Z,21.85
2023-01-25T00:07:42.226Z,22.25
2023-01-25T00:10:27.689Z,22.50
2023-01-25T00:13:13.185Z,20.98
2023-01-25T00:16:04.008Z,23.13
2023-01-25T00:18:50.517Z,21.77
2023-01-25T00:21:36.692Z,22.20
2023-01-25T00:24:23.319Z,21.00
2023-01-25T00:27:08.744Z,22.17
2023-01-25T00:29:54.092Z,22.05
2023-01-25T00:32:52.837Z,20.85
2023-01-25T00:35:38.942Z,20.95
2023-01-25T00:38:31.321Z,20.08
2023-01-25T00:41:16.481Z,20.95
2023-01-25T00:44:01.979Z,20.50
2023-01-25T00:46:47.796Z,20.52
2023-01-25T00:49:33.599Z,21.40
2023-01-25T00:52:18.984Z,20.85
2023-01-25T00:55:05.633Z,21.13
2023-01-25T00:57:51.208Z,21.63
2023-01-25T01:00:36.655Z,21.27
2023-01-25T01:03:22.647Z,21.25
2023-01-25T01:06:11.086Z,22.23
2023-01-25T01:08:56.279Z,21.58
2023-01-25T01:11:42.186Z,20.55
2023-01-25T01:14:27.456Z,22.98
2023-01-25T01:17:13.189Z,22.40
2023-01-25T01:19:58.916Z,24.70
2023-01-25T01:22:44.183Z,24.83
2023-01-25T01:25:29.732Z,26.10
2023-01-25T01:28:15.100Z,26.27
2023-01-25T01:31:05.601Z,26.60
2023-01-25T01:33:58.209Z,25.55
2023-01-25T01:36:44.097Z,25.55
2023-01-25T01:39:29.239Z,24.70
2023-01-25T01:42:14.762Z,23.73
2023-01-25T01:45:00.265Z,23.55
2023-01-25T01:47:48.775Z,22.58
2023-01-25T01:50:33.981Z,23.45
2023-01-25T01:53:21.118Z,23.83
2023-01-25T01:56:09.810Z,23.67
2023-01-25T01:58:58.094Z,23.50
2023-01-25T02:01:44.458Z,24.27
2023-01-25T02:04:30.790Z,23.90
2023-01-25T02:07:29.627Z,22.20
2023-01-25T02:10:15.645Z,21.90
2023-01-25T02:13:02.729Z,21.00
2023-01-25T02:15:51.766Z,20.35
2023-01-25T02:18:37.394Z,20.05
2023-01-25T02:21:24.848Z,20.52
2023-01-25T02:24:16.842Z,20.27
2023-01-25T02:27:02.267Z,19.80
2023-01-25T02:29:47.780Z,21.00
2023-01-25T02:32:35.300Z,20.90
2023-01-25T02:35:25.262Z,20.55
2023-01-25T02:38:13.787Z,20.83
2023-01-25T02:41:36.194Z,19.25
2023-01-25T02:44:29.157Z,20.20
2023-01-25T02:47:15.156Z,20.52
2023-01-25T02:50:00.628Z,21.08
2023-01-25T02:52:46.191Z,21.83
2023-01-25T02:55:31.552Z,21.10
2023-01-25T02:58:18.143Z,21.73
2023-01-25T03:01:04.088Z,20.83
2023-01-25T03:03:50.055Z,21.02
2023-01-25T03:06:38.024Z,23.85
2023-01-25T03:09:23.469Z,22.63
2023-01-25T03:12:09.912Z,21.92
2023-01-25T03:14:57.589Z,21.35
2023-01-25T03:17:43.592Z,22.02
2023-01-25T03:20:28.760Z,21.88
2023-01-25T03:23:14.297Z,22.60
2023-01-25T03:26:21.189Z,22.40
2023-01-25T03:29:36.064Z,21.35
2023-01-25T03:32:25.282Z,22.08
2023-01-25T03:35:11.176Z,21.38
2023-01-25T03:37:56.978Z,22.48
2023-01-25T03:40:42.428Z,22.52
2023-01-25T03:43:28.615Z,22.63
2023-01-25T03:46:14.650Z,22.42
2023-01-25T03:49:00.218Z,21.80
2023-01-25T03:51:45.653Z,21.75
2023-01-25T03:54:31.789Z,22.67
2023-01-25T03:57:17.543Z,23.13
2023-01-25T04:00:12.722Z,22.38
2023-01-25T04:03:03.764Z,21.75
2023-01-25T04:05:49.267Z,21.95
2023-01-25T04:08:36.470Z,21.35
2023-01-25T04:11:23.551Z,20.08
2023-01-25T04:14:10.076Z,20.67
2023-01-25T04:17:05.317Z,20.92
2023-01-25T04:20:12.454Z,20.88
2023-01-25T04:22:59.718Z,20.58
2023-01-25T04:26:06.310Z,20.90
2023-01-25T04:28:52.228Z,21.10
2023-01-25T04:31:37.743Z,21.17
2023-01-25T04:34:24.839Z,21.90
2023-01-25T04:37:11.049Z,22.08
2023-01-25T04:40:06.969Z,26.13
2023-01-25T04:42:58.727Z,23.15
2023-01-25T04:45:45.388Z,23.02
2023-01-25T04:48:39.027Z,22.35
2023-01-25T04:51:25.904Z,22.10
2023-01-25T04:54:11.568Z,21.48
2023-01-25T04:56:57.131Z,20.58
2023-01-25T04:59:42.662Z,21.13
2023-01-25T05:02:28.292Z,21.15
2023-01-25T05:05:14.648Z,21.73
2023-01-25T05:08:00.144Z,21.80
2023-01-25T05:10:47.267Z,20.23
2023-01-25T05:13:46.369Z,19.98
2023-01-25T05:16:40.006Z,19.67
2023-01-25T05:19:26.663Z,20.60
2023-01-25T05:22:20.840Z,20.98
2023-01-25T05:25:29.663Z,21.57
2023-01-25T05:28:16.108Z,21.23
2023-01-25T05:31:19.774Z,20.55
2023-01-25T05:34:06.089Z,20.77
2023-01-25T05:36:51.807Z,19.38
2023-01-25T05:39:37.986Z,19.38
2023-01-25T05:42:23.358Z,20.35
2023-01-25T05:45:10.065Z,19.70
2023-01-25T05:47:58.525Z,20.88
2023-01-25T05:50:43.948Z,20.10
2023-01-25T05:53:35.609Z,19.58
2023-01-25T05:56:22.013Z,22.00
2023-01-25T05:59:07.353Z,21.33
2023-01-25T06:01:53.405Z,21.17
2023-01-25T06:04:38.904Z,20.85
2023-01-25T06:07:25.154Z,21.25
2023-01-25T06:10:10.755Z,19.92
2023-01-25T06:12:59.388Z,20.77
2023-01-25T06:15:55.562Z,19.95
2023-01-25T06:19:16.447Z,19.83
2023-01-25T06:22:14.427Z,20.75
2023-01-25T06:25:00.060Z,21.83
2023-01-25T06:27:45.725Z,22.30
2023-01-25T06:30:30.985Z,21.42
2023-01-25T06:33:16.329Z,21.60
2023-01-25T06:36:16.298Z,21.65
2023-01-25T06:39:01.919Z,22.23
2023-01-25T06:41:47.502Z,21.85
2023-01-25T06:44:33.079Z,21.65
2023-01-25T06:47:18.480Z,20.25
2023-01-25T06:50:04.340Z,21.30
2023-01-25T06:52:54.033Z,21.20
2023-01-25T06:55:39.077Z,22.40
2023-01-25T06:58:24.641Z,22.00
2023-01-25T07:01:15.281Z,21.63
2023-01-25T07:04:00.862Z,23.15
2023-01-25T07:06:46.128Z,23.17
2023-01-25T07:09:31.714Z,22.58
2023-01-25T07:12:17.459Z,22.90
2023-01-25T07:15:02.646Z,24.17
2023-01-25T07:17:48.072Z,23.80
2023-01-25T07:20:33.509Z,23.45
2023-01-25T07:23:19.833Z,23.27
2023-01-25T07:26:06.284Z,25.95
2023-01-25T07:28:53.475Z,24.05
2023-01-25T07:31:39.024Z,25.48
2023-01-25T07:34:24.488Z,24.52
2023-01-25T07:37:10.323Z,23.92
2023-01-25T07:39:58.151Z,25.35
2023-01-25T07:42:43.433Z,24.17
2023-01-25T07:45:31.413Z,24.38
2023-01-25T07:48:18.423Z,23.52
2023-01-25T07:51:11.626Z,24.17
2023-01-25T07:54:03.207Z,25.27
2023-01-25T07:56:49.488Z,24.20
2023-01-25T07:59:34.648Z,23.15
2023-01-25T08:02:19.884Z,26.30
2023-01-25T08:05:06.285Z,24.33
2023-01-25T08:07:51.884Z,24.75
2023-01-25T08:10:38.134Z,25.17
2023-01-25T08:13:23.621Z,24.30
2023-01-25T08:16:09.229Z,23.48
2023-01-25T08:18:57.566Z,24.75
2023-01-25T08:21:43.147Z,25.77
2023-01-25T08:24:28.580Z,24.13
2023-01-25T08:27:13.912Z,26.58
2023-01-25T08:29:59.309Z,25.05
2023-01-25T08:32:44.918Z,24.95
2023-01-25T08:35:30.147Z,23.63
2023-01-25T08:38:15.313Z,24.10
2023-01-25T08:41:09.089Z,24.25
2023-01-25T08:43:55.523Z,22.77
2023-01-25T08:46:40.858Z,21.98
2023-01-25T08:49:27.575Z,24.20
2023-01-25T08:52:14.848Z,21.45
2023-01-25T08:55:00.832Z,20.80
2023-01-25T08:57:45.828Z,21.75
2023-01-25T09:00:31.453Z,21.95
2023-01-25T09:03:18.134Z,20.92
2023-01-25T09:06:04.149Z,21.23
2023-01-25T09:08:50.162Z,21.23
2023-01-25T09:11:37.954Z,21.08
2023-01-25T09:14:23.588Z,21.23
2023-01-25T09:17:10.072Z,22.02
2023-01-25T09:19:55.105Z,21.02
2023-01-25T09:22:40.614Z,22.83
2023-01-25T09:25:26.218Z,21.08
2023-01-25T09:28:11.883Z,21.85
2023-01-25T09:31:20.379Z,21.15
2023-01-25T09:34:23.536Z,21.75
2023-01-25T09:37:09.953Z,21.50
2023-01-25T09:39:55.349Z,20.40
2023-01-25T09:43:00.528Z,22.90
2023-01-25T09:45:47.316Z,22.52
2023-01-25T09:48:39.741Z,22.40
2023-01-25T09:52:00.621Z,23.65
2023-01-25T09:54:47.862Z,21.70
2023-01-25T09:57:38.021Z,21.75
2023-01-25T10:00:30.925Z,22.77
2023-01-25T10:03:32.377Z,21.83
2023-01-25T10:06:23.302Z,23.05
2023-01-25T10:09:31.862Z,21.30
2023-01-25T10:12:23.894Z,20.73
2023-01-25T10:15:19.817Z,21.30
2023-01-25T10:18:23.115Z,22.70
2023-01-25T10:21:18.393Z,24.17
2023-01-25T10:24:17.133Z,23.70
2023-01-25T10:27:28.483Z,23.27
2023-01-25T10:30:28.048Z,22.20
2023-01-25T10:33:19.681Z,24.35
2023-01-25T10:36:05.901Z,22.95
2023-01-25T10:38:59.193Z,23.33
2023-01-25T10:41:52.977Z,27.50
2023-01-25T10:44:38.280Z,24.65
2023-01-25T10:47:30.997Z,23.58
2023-01-25T10:53:30.986Z,25.27
2023-01-25T10:56:27.157Z,25.65
2023-01-25T10:59:23.918Z,24.88
2023-01-25T11:02:41.599Z,26.40
2023-01-25T11:05:31.792Z,27.02
2023-01-25T11:08:35.190Z,26.58
2023-01-25T11:11:31.431Z,25.88
2023-01-25T11:14:18.264Z,25.88
2023-01-25T11:17:05.571Z,27.10
2023-01-25T11:20:22.389Z,27.13
2023-01-25T11:23:29.050Z,25.58
2023-01-25T11:26:19.375Z,26.23
2023-01-25T11:29:20.774Z,25.60
2023-01-25T11:32:21.516Z,26.30
2023-01-25T11:35:15.297Z,25.27
2023-01-25T11:38:10.788Z,24.90
2023-01-25T11:41:06.118Z,24.95
2023-01-25T11:44:00.713Z,25.80
2023-01-25T11:47:13.627Z,25.77
2023-01-25T11:50:04.609Z,25.40
2023-01-25T11:53:20.826Z,26.00
2023-01-25T11:56:25.405Z,24.15
2023-01-25T11:59:23.414Z,25.95
2023-01-25T12:02:33.328Z,25.20
2023-01-25T12:05:37.010Z,24.30
2023-01-25T12:08:46.958Z,25.42
2023-01-25T12:11:46.504Z,25.85
2023-01-25T12:15:10.856Z,25.98
2023-01-25T12:18:14.644Z,27.25
2023-01-25T12:21:31.300Z,28.55
2023-01-25T12:24:47.910Z,27.30
2023-01-25T12:27:53.279Z,26.42
2023-01-25T12:30:43.063Z,27.25
2023-01-25T12:33:47.632Z,28.20
2023-01-25T12:36:41.872Z,28.75
2023-01-25T12:39:40.131Z,26.88
2023-01-25T12:42:37.602Z,29.17
2023-01-25T12:45:33.070Z,27.48
2023-01-25T12:48:23.611Z,28.60
2023-01-25T12:51:09.725Z,28.95
2023-01-25T12:53:56.094Z,29.48
2023-01-25T12:57:05.567Z,28.83
2023-01-25T13:00:10.004Z,29.90
2023-01-25T13:03:01.585Z,30.15
2023-01-25T13:06:01.967Z,29.40
2023-01-25T13:08:54.344Z,29.63
2023-01-25T13:11:42.503Z,29.25
2023-01-25T13:14:36.909Z,29.02
2023-01-25T13:17:38.286Z,29.00
2023-01-25T13:20:39.011Z,29.63
2023-01-25T13:23:51.992Z,29.90
2023-01-25T13:26:39.467Z,30.30
2023-01-25T13:29:38.222Z,29.65
2023-01-25T13:32:29.274Z,30.02
2023-01-25T13:35:38.841Z,30.33
2023-01-25T13:38:32.964Z,30.20
2023-01-25T13:41:18.432Z,29.85
2023-01-25T13:44:28.129Z,29.85
2023-01-25T13:47:16.883Z,28.23
2023-01-25T13:50:14.554Z,27.50
2023-01-25T13:53:19.123Z,28.15
2023-01-25T13:56:04.562Z,27.73
2023-01-25T13:58:50.004Z,28.77
2023-01-25T14:01:36.696Z,27.02
2023-01-25T14:04:22.248Z,27.50
2023-01-25T14:07:14.295Z,27.38
2023-01-25T14:10:10.211Z,26.58
2023-01-25T14:13:00.526Z,25.92
2023-01-25T14:16:00.144Z,25.27
2023-01-25T14:18:46.552Z,26.50
2023-01-25T14:21:32.191Z,26.52
2023-01-25T14:24:19.179Z,29.02
2023-01-25T14:27:05.699Z,28.75
2023-01-25T14:29:50.927Z,29.85
2023-01-25T14:32:36.908Z,27.85
2023-01-25T14:35:43.576Z,28.42
2023-01-25T14:38:39.256Z,28.05
2023-01-25T14:41:59.319Z,27.20
2023-01-25T14:44:46.208Z,28.27
2023-01-25T14:47:35.584Z,26.08
2023-01-25T14:50:41.115Z,26.58
2023-01-25T14:53:26.746Z,26.27
2023-01-25T14:56:43.030Z,26.27
2023-01-25T14:59:41.654Z,25.98
2023-01-25T15:02:49.589Z,25.73
2023-01-25T15:05:37.236Z,27.70
2023-01-25T15:08:39.938Z,27.80
2023-01-25T15:11:49.035Z,28.00
2023-01-25T15:14:48.264Z,28.42
2023-01-25T15:17:48.261Z,26.70
2023-01-25T15:20:41.652Z,27.67
2023-01-25T15:23:29.602Z,27.85
2023-01-25T15:26:28.645Z,27.98
2023-01-25T15:29:16.251Z,27.50
2023-01-25T15:32:01.441Z,28.05
2023-01-25T15:34:47.716Z,28.77
2023-01-25T15:37:32.998Z,28.35
2023-01-25T15:40:18.261Z,28.75
2023-01-25T15:43:03.890Z,28.35
2023-01-25T15:45:50.861Z,28.85
2023-01-25T15:48:40.511Z,26.75
2023-01-25T15:51:26.268Z,28.45
2023-01-25T15:54:11.465Z,25.95
2023-01-25T15:56:58.684Z,26.67
2023-01-25T15:59:44.240Z,26.98
2023-01-25T16:02:29.314Z,27.33
2023-01-25T16:05:14.797Z,26.75
2023-01-25T16:08:00.303Z,26.13
2023-01-25T16:10:45.821Z,26.05
2023-01-25T16:13:31.184Z,26.10
2023-01-25T16:16:20.606Z,30.05
2023-01-25T16:19:06.076Z,30.02
2023-01-25T16:21:51.954Z,30.20
2023-01-25T16:24:39.467Z,30.58
2023-01-25T16:27:25.619Z,29.98
2023-01-25T16:30:22.944Z,28.77
2023-01-25T16:33:09.436Z,28.42
2023-01-25T16:36:19.138Z,28.15
2023-01-25T16:39:22.079Z,27.58
2023-01-25T16:42:09.668Z,29.92
2023-01-25T16:44:55.156Z,33.25
2023-01-25T16:47:40.504Z,31.77
2023-01-25T16:50:26.160Z,31.95
2023-01-25T16:53:11.597Z,32.90
2023-01-25T16:55:59.506Z,30.35
2023-01-25T16:58:46.014Z,32.63
2023-01-25T17:01:32.031Z,31.65
2023-01-25T17:04:18.274Z,31.45
2023-01-25T17:07:03.423Z,32.08
2023-01-25T17:09:48.751Z,32.03
2023-01-25T17:12:34.346Z,32.08
2023-01-25T17:15:20.410Z,33.92
2023-01-25T17:18:05.821Z,32.38
2023-01-25T17:21:06.514Z,31.75
2023-01-25T17:23:52.637Z,31.42
2023-01-25T17:26:37.843Z,30.63
2023-01-25T17:29:23.278Z,30.88
2023-01-25T17:32:09.338Z,32.25
2023-01-25T17:34:54.839Z,31.63
2023-01-25T17:37:41.061Z,31.20
2023-01-25T17:40:26.503Z,29.73
2023-01-25T17:43:11.796Z,29.27
2023-01-25T17:45:57.583Z,28.13
2023-01-25T17:48:42.640Z,30.92
2023-01-25T17:51:28.637Z,31.08
2023-01-25T17:54:14.290Z,31.40
2023-01-25T17:56:59.761Z,30.50
2023-01-25T17:59:45.605Z,30.52
2023-01-25T18:02:30.994Z,31.95
2023-01-25T18:05:16.604Z,29.20
2023-01-25T18:08:01.895Z,29.92
2023-01-25T18:10:47.250Z,28.70
2023-01-25T18:13:32.773Z,28.75
2023-01-25T18:16:19.791Z,29.08
2023-01-25T18:19:06.110Z,30.52
2023-01-25T18:21:51.513Z,30.38
2023-01-25T18:24:37.118Z,29.95
2023-01-25T18:27:24.442Z,29.75
2023-01-25T18:30:43.594Z,31.60
2023-01-25T18:33:29.092Z,30.95
2023-01-25T18:36:16.601Z,31.63
2023-01-25T18:39:02.146Z,32.72
2023-01-25T18:41:49.828Z,32.08
2023-01-25T18:44:36.026Z,31.73
2023-01-25T18:47:22.738Z,32.28
2023-01-25T18:50:09.439Z,31.23
2023-01-25T18:52:55.721Z,31.85
2023-01-25T18:55:41.009Z,31.85
2023-01-25T18:58:26.360Z,32.55
2023-01-25T19:01:17.573Z,33.28
2023-01-25T19:04:02.984Z,31.95
2023-01-25T19:06:48.423Z,32.00
2023-01-25T19:09:34.033Z,30.67
2023-01-25T19:12:19.423Z,29.98
2023-01-25T19:15:05.363Z,30.83
2023-01-25T19:17:50.778Z,31.42
2023-01-25T19:20:36.067Z,36.03
2023-01-25T19:23:21.606Z,34.45
2023-01-25T19:26:09.726Z,34.95
2023-01-25T19:28:56.159Z,34.47
2023-01-25T19:31:41.878Z,36.03
2023-01-25T19:34:27.237Z,34.97
2023-01-25T19:37:12.371Z,36.13
2023-01-25T19:39:57.695Z,34.63
2023-01-25T19:42:42.993Z,38.05
2023-01-25T19:45:28.456Z,36.88
2023-01-25T19:48:13.864Z,37.92
2023-01-25T19:51:07.985Z,36.10
2023-01-25T19:53:58.498Z,37.22
2023-01-25T19:56:46.374Z,36.42
2023-01-25T19:59:32.509Z,40.45
2023-01-25T20:02:17.958Z,40.78
2023-01-25T20:05:03.272Z,39.78
2023-01-25T20:07:48.491Z,40.72
2023-01-25T20:10:34.676Z,36.50
2023-01-25T20:13:19.875Z,38.53
2023-01-25T20:16:05.788Z,38.80
2023-01-25T20:18:51.297Z,35.85
2023-01-25T20:21:38.164Z,36.88
2023-01-25T20:24:23.619Z,37.75
2023-01-25T20:27:08.998Z,39.45
2023-01-25T20:29:54.427Z,38.42
2023-01-25T20:32:39.834Z,38.13
2023-01-25T20:35:25.286Z,38.88
2023-01-25T20:38:10.816Z,38.15
2023-01-25T20:41:04.444Z,36.97
2023-01-25T20:43:52.312Z,37.92
2023-01-25T20:46:39.830Z,37.22
2023-01-25T20:49:24.972Z,38.03
2023-01-25T20:52:13.580Z,38.20
2023-01-25T20:54:59.035Z,37.60
2023-01-25T20:57:44.846Z,36.25
2023-01-25T21:00:30.219Z,37.05
2023-01-25T21:03:15.596Z,35.90
2023-01-25T21:06:01.114Z,34.85
2023-01-25T21:08:46.275Z,35.42
2023-01-25T21:11:32.509Z,35.42
2023-01-25T21:14:19.353Z,34.42
2023-01-25T21:17:05.035Z,33.85
2023-01-25T21:19:50.344Z,34.25
2023-01-25T21:22:36.073Z,33.72
2023-01-25T21:25:21.062Z,32.80
2023-01-25T21:28:06.369Z,32.40
2023-01-25T21:30:52.124Z,30.45
2023-01-25T21:33:38.074Z,31.10
2023-01-25T21:36:23.363Z,31.17
2023-01-25T21:39:08.751Z,30.95
2023-01-25T21:41:54.290Z,29.73
2023-01-25T21:44:58.339Z,30.08
2023-01-25T21:47:43.573Z,29.48
2023-01-25T21:50:47.613Z,29.00
2023-01-25T21:53:32.975Z,29.58
2023-01-25T21:56:18.250Z,28.20
2023-01-25T21:59:03.692Z,27.73
2023-01-25T22:01:49.511Z,26.30
2023-01-25T22:04:36.019Z,26.58
2023-01-25T22:07:21.509Z,26.52
2023-01-25T22:10:07.138Z,26.75
2023-01-25T22:12:52.686Z,24.27
2023-01-25T22:15:37.746Z,24.17
2023-01-25T22:18:23.282Z,26.75
2023-01-25T22:21:20.372Z,28.75
2023-01-25T22:24:06.293Z,26.13
2023-01-25T22:27:03.602Z,27.05
2023-01-25T22:29:49.058Z,26.80
2023-01-25T22:32:34.501Z,25.25
2023-01-25T22:35:20.027Z,26.90
2023-01-25T22:38:05.264Z,27.15
2023-01-25T22:40:50.618Z,24.45
2023-01-25T22:43:37.397Z,24.67
2023-01-25T22:46:25.843Z,23.85
2023-01-25T22:49:11.405Z,24.25
2023-01-25T22:51:56.840Z,24.42
2023-01-25T22:54:42.240Z,22.95
2023-01-25T22:57:27.791Z,24.30
2023-01-25T23:00:13.959Z,22.13
2023-01-25T23:02:59.155Z,23.10
2023-01-25T23:05:44.636Z,22.80
2023-01-25T23:08:33.616Z,22.77
2023-01-25T23:11:21.320Z,21.83
2023-01-25T23:14:29.653Z,22.83
2023-01-25T23:17:33.556Z,21.55
2023-01-25T23:20:19.168Z,21.35
2023-01-25T23:23:04.656Z,20.63
2023-01-25T23:25:51.483Z,20.50
2023-01-25T23:28:37.058Z,20.85
2023-01-25T23:31:24.429Z,19.92
2023-01-25T23:34:11.556Z,21.88
2023-01-25T23:36:57.173Z,20.27
2023-01-25T23:39:42.492Z,20.10
2023-01-25T23:42:28.063Z,19.90
2023-01-25T23:45:13.620Z,18.00
2023-01-25T23:47:59.057Z,18.52
2023-01-25T23:50:44.542Z,17.83
2023-01-25T23:53:33.507Z,18.00
2023-01-25T23:56:21.288Z,16.33
2023-01-25T23:59:07.784Z,16.55
